Time;durP1;ratioP1;P1;durP2;ratioP2;P2;SDS_P1;SDS_P2;PMS_P1;PMS_P2;Temp;Humidity;BMP_temperature;BMP_pressure;BME280_temperature;BME280_humidity;BME280_pressure;Samples;Min_cycle;Max_cycle;Signal;HPM_P1;HPM_P2
2021/06/03 00:00:34;;;;;;;4.57;4.18;;;18.50;83.50;;;;;;4987492;28;20204;-60
2021/06/03 00:03:00;;;;;;;5.10;4.50;;;18.40;83.40;;;;;;4988869;28;20215;-61
2021/06/03 00:05:29;;;;;;;5.40;5.00;;;18.40;83.70;;;;;;4988872;28;20368;-61
2021/06/03 00:07:56;;;;;;;5.60;5.10;;;18.30;84.60;;;;;;4989244;28;20496;-61
2021/06/03 00:10:28;;;;;;;5.40;4.93;;;18.30;84.80;;;;;;4988622;28;20179;-63
2021/06/03 00:12:54;;;;;;;5.55;5.05;;;18.30;84.70;;;;;;4988996;28;20274;-64
2021/06/03 00:15:20;;;;;;;5.30;4.90;;;18.40;84.80;;;;;;4989016;28;20223;-63
2021/06/03 00:17:46;;;;;;;4.87;4.47;;;18.40;84.70;;;;;;4988379;28;20211;-63
2021/06/03 00:20:15;;;;;;;6.50;4.80;;;18.30;85.00;;;;;;4988955;28;20175;-63
2021/06/03 00:22:41;;;;;;;5.00;4.60;;;18.20;85.70;;;;;;4989236;28;20230;-62
2021/06/03 00:25:08;;;;;;;5.00;4.55;;;18.30;85.90;;;;;;4988508;28;20199;-63
2021/06/03 00:27:34;;;;;;;4.93;4.53;;;18.10;86.20;;;;;;4988858;28;20188;-63
2021/06/03 00:30:00;;;;;;;5.30;4.88;;;18.20;87.20;;;;;;4986816;28;20195;-63
2021/06/03 00:32:26;;;;;;;6.65;4.55;;;18.10;87.50;;;;;;4988887;28;20218;-62
2021/06/03 00:34:52;;;;;;;5.30;4.90;;;18.00;88.40;;;;;;4988707;28;20649;-63
2021/06/03 00:37:17;;;;;;;5.20;4.70;;;17.90;89.10;;;;;;4988590;28;20216;-63
2021/06/03 00:39:43;;;;;;;5.13;4.70;;;17.80;90.00;;;;;;4980734;28;20879;-63
2021/06/03 00:42:09;;;;;;;5.93;5.33;;;17.70;90.30;;;;;;4986870;28;20195;-63
2021/06/03 00:44:35;;;;;;;5.00;4.67;;;17.70;90.60;;;;;;4988785;28;20184;-63
2021/06/03 00:47:00;;;;;;;5.03;4.63;;;17.50;90.90;;;;;;4988802;28;20207;-63
2021/06/03 00:49:26;;;;;;;5.67;4.83;;;17.50;91.10;;;;;;4988613;28;20450;-64
2021/06/03 00:51:52;;;;;;;5.30;4.80;;;17.40;91.70;;;;;;4988683;28;20188;-63
2021/06/03 00:54:17;;;;;;;5.43;4.93;;;17.40;92.00;;;;;;4988942;28;20188;-64
2021/06/03 00:56:43;;;;;;;4.90;4.50;;;17.30;92.40;;;;;;4988299;28;20298;-61
2021/06/03 00:59:08;;;;;;;5.67;5.17;;;17.30;92.50;;;;;;4988850;28;20401;-61
2021/06/03 01:01:34;;;;;;;5.50;4.97;;;17.20;93.00;;;;;;4988740;28;20598;-61
2021/06/03 01:04:00;;;;;;;5.63;5.13;;;17.10;93.30;;;;;;4988613;28;20282;-61
2021/06/03 01:06:26;;;;;;;5.30;4.90;;;17.40;93.90;;;;;;4988551;28;20723;-61
2021/06/03 01:09:12;;;;;;;5.32;4.82;;;17.30;94.10;;;;;;4988317;28;20549;-61
2021/06/03 01:11:52;;;;;;;5.15;4.65;;;17.10;94.10;;;;;;4991150;28;20191;-61
2021/06/03 01:14:25;;;;;;;5.10;4.65;;;17.10;94.50;;;;;;4992442;28;20286;-61
2021/06/03 01:16:52;;;;;;;6.43;5.20;;;17.10;94.60;;;;;;4991677;28;20215;-61
2021/06/03 01:19:42;;;;;;;5.00;4.60;;;16.90;94.80;;;;;;4984802;28;20190;-62
2021/06/03 01:22:11;;;;;;;5.10;4.70;;;16.90;95.10;;;;;;4982009;28;20202;-61
2021/06/03 01:24:43;;;;;;;5.43;4.93;;;17.20;95.60;;;;;;4991812;28;20199;-61
2021/06/03 01:27:15;;;;;;;5.65;5.13;;;17.00;95.90;;;;;;4991824;28;20265;-61
2021/06/03 01:30:06;;;;;;;5.30;4.80;;;16.70;96.00;;;;;;4991932;28;20192;-61
2021/06/03 01:32:35;;;;;;;5.50;5.00;;;16.60;96.30;;;;;;4991997;28;20274;-61
2021/06/03 01:35:02;;;;;;;5.00;4.50;;;16.70;96.30;;;;;;4991444;28;20664;-60
2021/06/03 01:37:28;;;;;;;6.05;5.55;;;16.90;96.50;;;;;;4993013;28;20270;-62
2021/06/03 01:39:54;;;;;;;5.87;5.37;;;16.90;96.70;;;;;;4991408;28;20225;-61
2021/06/03 01:42:20;;;;;;;6.18;5.68;;;16.90;96.90;;;;;;4990709;28;20435;-62
2021/06/03 01:44:47;;;;;;;5.93;5.35;;;16.60;97.00;;;;;;4990450;28;20180;-61
2021/06/03 01:47:13;;;;;;;7.05;5.20;;;16.50;97.40;;;;;;4991527;28;20190;-62
2021/06/03 01:49:41;;;;;;;6.20;5.30;;;16.50;97.90;;;;;;4991224;28;20180;-61
2021/06/03 01:52:08;;;;;;;5.57;5.00;;;16.30;98.00;;;;;;4991633;28;20191;-62
2021/06/03 01:54:34;;;;;;;6.22;5.72;;;16.70;98.40;;;;;;5004755;28;20176;-61
2021/06/03 01:57:00;;;;;;;5.78;5.18;;;16.40;98.30;;;;;;4991255;28;20572;-61
2021/06/03 01:59:26;;;;;;;5.90;5.32;;;16.40;98.50;;;;;;4992498;28;20644;-61
2021/06/03 02:01:52;;;;;;;5.73;5.33;;;16.60;99.00;;;;;;4991416;28;20295;-63
2021/06/03 02:04:17;;;;;;;5.93;5.43;;;16.20;98.80;;;;;;4992638;28;20218;-64
2021/06/03 02:06:44;;;;;;;5.80;5.30;;;16.20;99.10;;;;;;4992257;28;20203;-62
2021/06/03 02:09:11;;;;;;;5.32;4.93;;;16.40;99.20;;;;;;4990756;28;20191;-62
2021/06/03 02:11:38;;;;;;;5.78;5.28;;;16.60;99.40;;;;;;4991196;28;20195;-61
2021/06/03 02:14:07;;;;;;;6.57;6.03;;;16.50;99.20;;;;;;4992842;28;20191;-61
2021/06/03 02:16:42;;;;;;;6.00;5.50;;;16.40;99.30;;;;;;4988601;28;20211;-61
2021/06/03 02:19:21;;;;;;;5.80;5.30;;;16.40;99.40;;;;;;5002706;28;20194;-62
2021/06/03 02:21:48;;;;;;;6.05;5.47;;;16.50;99.60;;;;;;4990608;28;20187;-61
2021/06/03 02:24:14;;;;;;;5.75;5.30;;;16.40;99.60;;;;;;4989938;28;20184;-60
2021/06/03 02:26:43;;;;;;;6.03;5.53;;;16.50;99.80;;;;;;4990734;28;20229;-61
2021/06/03 02:29:09;;;;;;;6.45;5.95;;;16.40;99.90;;;;;;4990951;28;20458;-60
2021/06/03 02:31:36;;;;;;;6.03;5.53;;;16.30;99.90;;;;;;4990584;28;20191;-60
2021/06/03 02:34:04;;;;;;;6.60;6.10;;;16.10;99.90;;;;;;4990644;28;20805;-60
2021/06/03 02:36:30;;;;;;;6.22;5.63;;;16.20;99.90;;;;;;4990030;28;21215;-60
2021/06/03 02:38:56;;;;;;;5.57;5.18;;;16.00;99.90;;;;;;4989541;28;20191;-60
2021/06/03 02:41:23;;;;;;;5.87;5.30;;;16.30;99.90;;;;;;4990648;28;20183;-60
2021/06/03 02:43:49;;;;;;;5.95;5.50;;;16.30;99.90;;;;;;4988388;28;20601;-60
2021/06/03 02:46:20;;;;;;;6.28;5.70;;;16.40;99.90;;;;;;4990320;28;20298;-61
2021/06/03 02:48:46;;;;;;;6.22;5.72;;;16.30;99.90;;;;;;4990017;28;20193;-60
2021/06/03 02:51:12;;;;;;;6.37;5.77;;;16.30;99.90;;;;;;4989966;28;20191;-59
2021/06/03 02:53:41;;;;;;;5.60;5.10;;;16.20;99.90;;;;;;4990281;28;20718;-61
2021/06/03 02:56:07;;;;;;;6.80;6.10;;;16.30;99.90;;;;;;4989990;28;20207;-61
2021/06/03 02:58:33;;;;;;;5.97;5.57;;;16.50;99.90;;;;;;4990346;28;20755;-61
2021/06/03 03:00:59;;;;;;;6.40;5.90;;;16.40;99.90;;;;;;4990085;28;20520;-62
2021/06/03 03:03:25;;;;;;;6.60;5.20;;;16.40;99.90;;;;;;4990382;28;20187;-62
2021/06/03 03:05:51;;;;;;;6.07;5.45;;;16.60;99.90;;;;;;4989732;28;20833;-63
2021/06/03 03:08:17;;;;;;;6.88;6.28;;;16.50;99.90;;;;;;4989751;28;20191;-63
2021/06/03 03:10:49;;;;;;;5.60;5.20;;;16.50;99.90;;;;;;4989753;28;20661;-63
2021/06/03 03:13:15;;;;;;;5.80;5.40;;;16.40;99.90;;;;;;4989930;28;20438;-62
2021/06/03 03:15:41;;;;;;;5.35;4.95;;;16.70;99.90;;;;;;4989701;28;20218;-62
2021/06/03 03:18:07;;;;;;;6.00;5.50;;;16.60;99.90;;;;;;4989567;28;20211;-64
2021/06/03 03:20:33;;;;;;;6.40;5.80;;;16.60;99.90;;;;;;4989693;28;20191;-62
2021/06/03 03:22:59;;;;;;;6.10;5.60;;;16.80;99.90;;;;;;4989770;28;20222;-63
2021/06/03 03:25:27;;;;;;;5.60;5.10;;;16.80;99.90;;;;;;4989910;28;20664;-63
2021/06/03 03:27:54;;;;;;;5.50;5.10;;;16.70;99.90;;;;;;4989652;28;20184;-63
2021/06/03 03:30:23;;;;;;;6.43;5.95;;;16.80;99.90;;;;;;5001617;28;20196;-63
2021/06/03 03:32:49;;;;;;;5.90;5.40;;;16.80;99.90;;;;;;4989685;28;20606;-63
2021/06/03 03:35:15;;;;;;;6.00;5.60;;;17.00;99.90;;;;;;4988094;28;20204;-64
2021/06/03 03:37:43;;;;;;;5.97;5.57;;;17.00;99.90;;;;;;4988834;28;20242;-64
2021/06/03 03:40:12;;;;;;;6.22;5.72;;;17.10;99.90;;;;;;4986789;28;20558;-63
2021/06/03 03:42:37;;;;;;;5.80;5.30;;;17.20;99.90;;;;;;4989050;28;20696;-63
2021/06/03 03:45:05;;;;;;;6.07;5.57;;;17.10;99.90;;;;;;4988823;28;20266;-63
2021/06/03 03:47:30;;;;;;;6.00;5.50;;;17.10;99.90;;;;;;4989095;28;20955;-64
2021/06/03 03:49:56;;;;;;;6.03;5.43;;;17.10;99.90;;;;;;4989015;28;20196;-62
2021/06/03 03:52:22;;;;;;;5.80;5.20;;;17.20;99.90;;;;;;4989294;28;20195;-62
2021/06/03 03:54:47;;;;;;;5.60;5.03;;;17.00;99.90;;;;;;4989045;28;20476;-62
2021/06/03 03:57:14;;;;;;;5.37;4.93;;;17.10;99.90;;;;;;4988911;28;20342;-62
2021/06/03 03:59:39;;;;;;;5.78;5.28;;;17.20;99.90;;;;;;4989044;28;20566;-61
2021/06/03 04:02:05;;;;;;;6.10;5.60;;;17.10;99.90;;;;;;4989255;28;20184;-60
2021/06/03 04:04:31;;;;;;;5.47;4.97;;;17.20;99.90;;;;;;4989636;28;20180;-60
2021/06/03 04:06:57;;;;;;;5.80;5.40;;;17.30;99.90;;;;;;4989101;28;20245;-61
2021/06/03 04:09:23;;;;;;;5.72;5.22;;;17.30;99.90;;;;;;4988827;28;20215;-61
2021/06/03 04:11:49;;;;;;;5.37;4.87;;;17.40;99.90;;;;;;4989163;28;20226;-61
2021/06/03 04:14:15;;;;;;;5.88;4.95;;;17.20;99.90;;;;;;4989004;28;20194;-63
2021/06/03 04:16:41;;;;;;;6.03;4.93;;;17.30;99.90;;;;;;4988017;28;20207;-63
2021/06/03 04:19:06;;;;;;;6.50;5.27;;;17.30;99.90;;;;;;4989942;28;20184;-63
2021/06/03 04:21:32;;;;;;;5.70;5.30;;;17.30;99.90;;;;;;4988835;28;20179;-63
2021/06/03 04:23:59;;;;;;;5.57;5.17;;;17.30;99.90;;;;;;4987581;28;20449;-62
2021/06/03 04:26:25;;;;;;;5.25;4.85;;;17.40;99.90;;;;;;4988777;28;20588;-62
2021/06/03 04:28:50;;;;;;;8.30;5.70;;;17.40;99.90;;;;;;4987492;28;20187;-62
2021/06/03 04:31:16;;;;;;;5.53;5.03;;;17.40;99.90;;;;;;4988107;28;20477;-62
2021/06/03 04:33:42;;;;;;;5.80;5.30;;;17.30;99.90;;;;;;4988461;28;20555;-62
2021/06/03 04:36:08;;;;;;;6.20;5.70;;;17.40;99.90;;;;;;4987839;28;20954;-63
2021/06/03 04:38:34;;;;;;;5.80;5.40;;;17.40;99.90;;;;;;4987758;28;20198;-63
2021/06/03 04:41:00;;;;;;;5.10;4.60;;;17.30;99.90;;;;;;4988675;28;20266;-62
2021/06/03 04:43:27;;;;;;;7.23;5.13;;;17.30;99.90;;;;;;4988729;28;20290;-62
2021/06/03 04:45:53;;;;;;;5.20;4.80;;;17.30;99.90;;;;;;4989978;28;20545;-62
2021/06/03 04:48:18;;;;;;;4.78;4.47;;;17.40;99.90;;;;;;4992161;28;20189;-63
2021/06/03 04:50:45;;;;;;;6.20;5.53;;;17.30;99.90;;;;;;4992204;28;20189;-62
2021/06/03 04:53:13;;;;;;;5.55;5.05;;;17.50;99.90;;;;;;4992655;28;20711;-63
2021/06/03 04:55:39;;;;;;;6.15;5.63;;;17.60;99.90;;;;;;4991805;28;20218;-62
2021/06/03 04:58:07;;;;;;;5.83;5.43;;;17.80;99.90;;;;;;4991788;28;20204;-63
2021/06/03 05:00:36;;;;;;;6.20;5.50;;;18.00;99.90;;;;;;4990103;28;20439;-63
2021/06/03 05:03:07;;;;;;;6.28;5.65;;;18.20;99.90;;;;;;4991686;28;20652;-62
2021/06/03 05:05:33;;;;;;;6.20;5.63;;;18.10;99.90;;;;;;4991372;28;20265;-61
2021/06/03 05:07:59;;;;;;;6.13;5.53;;;17.80;99.90;;;;;;4991998;28;20195;-61
2021/06/03 05:10:26;;;;;;;6.10;4.90;;;17.90;99.90;;;;;;4991838;28;20679;-61
2021/06/03 05:12:52;;;;;;;6.63;5.53;;;17.90;99.90;;;;;;4991496;28;20202;-61
2021/06/03 05:15:19;;;;;;;5.40;5.00;;;18.00;99.90;;;;;;4987487;28;20207;-61
2021/06/03 05:17:46;;;;;;;6.18;5.57;;;18.10;99.90;;;;;;4993066;28;21007;-60
2021/06/03 05:20:16;;;;;;;5.85;5.35;;;18.00;99.90;;;;;;4991550;28;20191;-61
2021/06/03 05:22:42;;;;;;;5.78;5.22;;;18.10;99.90;;;;;;4989997;28;20299;-61
2021/06/03 05:25:12;;;;;;;5.80;5.30;;;18.20;99.90;;;;;;4984543;28;20285;-60
2021/06/03 05:27:39;;;;;;;5.93;5.53;;;18.30;99.90;;;;;;4990914;28;20196;-61
2021/06/03 05:30:07;;;;;;;6.22;5.63;;;18.20;99.90;;;;;;4990555;28;20617;-61
2021/06/03 05:32:33;;;;;;;6.10;5.60;;;18.40;99.90;;;;;;4990324;28;20191;-60
2021/06/03 05:34:59;;;;;;;6.30;5.70;;;18.60;99.90;;;;;;4990462;28;20198;-61
2021/06/03 05:37:25;;;;;;;6.80;6.17;;;18.90;99.90;;;;;;4990710;28;20462;-61
2021/06/03 05:39:50;;;;;;;6.90;6.13;;;19.10;99.90;;;;;;4990395;28;20199;-62
2021/06/03 05:42:18;;;;;;;7.37;5.27;;;19.30;99.90;;;;;;4990582;28;20434;-61
2021/06/03 05:44:43;;;;;;;6.13;5.63;;;19.60;99.40;;;;;;4990307;28;20196;-60
2021/06/03 05:47:09;;;;;;;5.70;5.17;;;19.90;98.80;;;;;;4988494;28;20958;-60
2021/06/03 05:49:34;;;;;;;6.17;5.67;;;20.30;98.10;;;;;;4991707;28;20192;-62
2021/06/03 05:52:02;;;;;;;6.30;5.43;;;20.60;97.30;;;;;;4990396;28;20632;-57
2021/06/03 05:54:29;;;;;;;7.60;5.80;;;20.90;96.30;;;;;;4991305;28;20278;-57
2021/06/03 05:56:55;;;;;;;6.35;5.75;;;21.00;96.00;;;;;;4987603;28;20208;-57
2021/06/03 05:59:21;;;;;;;5.75;5.30;;;20.90;95.60;;;;;;4990322;28;20209;-57
2021/06/03 06:01:47;;;;;;;5.43;5.03;;;21.10;95.80;;;;;;4988409;28;20188;-58
2021/06/03 06:06:58;;;;;;;5.00;4.50;;;21.30;95.30;;;;;;4979713;28;20692;-58
2021/06/03 06:09:24;;;;;;;4.77;4.30;;;21.40;95.40;;;;;;4990220;28;20212;-58
2021/06/03 06:11:49;;;;;;;4.20;3.90;;;21.50;95.40;;;;;;4988796;28;20222;-58
2021/06/03 06:14:15;;;;;;;5.17;4.77;;;21.50;95.60;;;;;;4990048;28;20210;-57
2021/06/03 06:16:41;;;;;;;4.70;4.27;;;21.50;95.80;;;;;;4987527;28;20203;-58
2021/06/03 06:19:08;;;;;;;5.50;5.10;;;21.60;95.70;;;;;;4986643;28;20211;-57
2021/06/03 06:21:35;;;;;;;4.37;4.07;;;21.60;95.80;;;;;;4986347;28;20924;-58
2021/06/03 06:24:02;;;;;;;4.97;4.68;;;21.60;96.10;;;;;;4985696;28;20945;-59
2021/06/03 06:26:28;;;;;;;5.03;4.63;;;21.50;96.20;;;;;;4987433;28;20222;-58
2021/06/03 06:28:55;;;;;;;5.88;4.72;;;21.60;96.30;;;;;;4986120;28;20451;-58
2021/06/03 06:31:22;;;;;;;5.30;4.80;;;21.60;96.40;;;;;;4983782;28;20192;-59
2021/06/03 06:33:48;;;;;;;4.55;4.22;;;21.60;96.50;;;;;;4989988;28;20218;-58
2021/06/03 06:36:14;;;;;;;5.07;4.63;;;21.70;96.50;;;;;;4989236;28;20207;-56
2021/06/03 06:38:41;;;;;;;5.90;4.50;;;21.70;96.40;;;;;;4987010;28;20291;-57
2021/06/03 06:41:09;;;;;;;4.45;4.15;;;21.80;96.70;;;;;;4988451;28;20202;-58
2021/06/03 06:43:35;;;;;;;4.88;4.47;;;21.80;96.60;;;;;;4989030;28;20199;-58
2021/06/03 06:46:02;;;;;;;5.17;4.77;;;21.80;96.50;;;;;;4987554;28;20214;-58
2021/06/03 06:48:27;;;;;;;4.90;4.40;;;21.80;96.50;;;;;;4987567;28;20445;-59
2021/06/03 06:50:53;;;;;;;4.87;4.53;;;21.90;96.40;;;;;;4990188;28;20180;-59
2021/06/03 06:53:20;;;;;;;5.30;4.85;;;21.90;96.40;;;;;;4991284;28;20394;-59
2021/06/03 06:55:46;;;;;;;5.15;4.80;;;21.90;96.50;;;;;;4987462;28;20204;-58
2021/06/03 06:58:12;;;;;;;5.38;4.88;;;21.90;96.70;;;;;;4989396;28;20202;-59
2021/06/03 07:00:41;;;;;;;4.82;4.43;;;21.90;96.60;;;;;;4988241;28;20614;-59
2021/06/03 07:03:10;;;;;;;4.65;4.30;;;22.00;96.40;;;;;;4987067;28;20258;-59
2021/06/03 07:05:41;;;;;;;4.38;4.07;;;22.00;96.20;;;;;;4985851;28;20203;-58
2021/06/03 07:08:07;;;;;;;4.37;4.07;;;22.10;96.10;;;;;;4990362;28;20187;-59
2021/06/03 07:10:33;;;;;;;4.40;4.00;;;22.10;96.20;;;;;;4989553;28;20439;-59
2021/06/03 07:12:59;;;;;;;4.53;4.13;;;22.20;96.10;;;;;;4989577;28;20466;-59
2021/06/03 07:15:25;;;;;;;6.90;3.63;;;22.30;95.50;;;;;;4987251;28;20467;-58
2021/06/03 07:17:51;;;;;;;3.90;3.70;;;22.50;95.50;;;;;;4986251;28;20208;-59
2021/06/03 07:20:19;;;;;;;4.87;4.47;;;22.80;95.30;;;;;;4982987;28;20532;-59
2021/06/03 07:22:53;;;;;;;4.33;4.10;;;23.10;94.90;;;;;;4989196;28;20210;-59
2021/06/03 07:25:22;;;;;;;4.80;4.43;;;23.30;94.40;;;;;;4986019;28;20465;-58
2021/06/03 07:27:49;;;;;;;11.63;9.80;;;23.60;93.70;;;;;;4988258;28;20473;-59
2021/06/03 07:30:18;;;;;;;7.97;7.17;;;23.80;93.20;;;;;;4988857;28;20500;-59
2021/06/03 07:32:43;;;;;;;5.43;5.03;;;24.40;92.10;;;;;;4987004;28;20447;-59
2021/06/03 07:35:12;;;;;;;5.60;5.20;;;25.20;91.10;;;;;;4988928;28;20517;-58
2021/06/03 07:37:39;;;;;;;5.77;5.17;;;25.60;86.70;;;;;;4986180;28;20201;-58
2021/06/03 07:40:07;;;;;;;5.30;4.90;;;25.40;85.30;;;;;;4984218;28;20977;-57
2021/06/03 07:42:33;;;;;;;4.73;4.40;;;25.40;85.30;;;;;;4987632;28;20451;-59
2021/06/03 07:44:58;;;;;;;6.40;5.30;;;25.50;85.30;;;;;;4983263;28;20503;-58
2021/06/03 07:47:24;;;;;;;5.77;5.27;;;25.60;84.40;;;;;;4986675;28;20252;-58
2021/06/03 07:49:50;;;;;;;5.17;4.77;;;26.50;81.30;;;;;;4983799;28;20187;-58
2021/06/03 07:52:16;;;;;;;5.00;4.60;;;27.70;77.30;;;;;;4983548;28;20183;-58
2021/06/03 07:54:41;;;;;;;5.40;5.00;;;29.30;71.70;;;;;;4983269;28;20242;-59
2021/06/03 07:57:08;;;;;;;5.00;4.53;;;31.50;64.50;;;;;;4983063;28;20322;-59
2021/06/03 07:59:34;;;;;;;5.30;4.90;;;32.20;59.00;;;;;;4985487;28;20191;-59
2021/06/03 08:02:00;;;;;;;4.83;4.30;;;33.50;55.60;;;;;;4981846;28;20439;-59
2021/06/03 08:04:25;;;;;;;4.80;4.40;;;33.80;54.10;;;;;;4987185;28;20204;-59
2021/06/03 08:06:51;;;;;;;4.93;4.53;;;34.50;52.30;;;;;;4986255;28;20486;-59
2021/06/03 08:09:17;;;;;;;6.03;5.43;;;35.00;50.50;;;;;;4986152;28;20569;-59
2021/06/03 08:11:44;;;;;;;4.23;3.93;;;34.20;51.10;;;;;;4989201;28;20632;-59
2021/06/03 08:14:12;;;;;;;4.63;4.10;;;35.70;48.60;;;;;;4984656;28;20179;-59
2021/06/03 08:16:37;;;;;;;3.87;3.57;;;36.50;46.40;;;;;;4980413;28;20474;-59
2021/06/03 08:19:04;;;;;;;3.07;2.87;;;36.10;45.70;;;;;;4987994;28;20446;-58
2021/06/03 08:21:29;;;;;;;2.93;2.33;;;36.90;44.20;;;;;;4990750;28;20257;-59
2021/06/03 08:23:55;;;;;;;2.60;2.40;;;37.00;43.60;;;;;;4989412;28;20947;-59
2021/06/03 08:26:23;;;;;;;2.93;2.63;;;37.00;42.70;;;;;;4991808;28;20209;-59
2021/06/03 08:28:49;;;;;;;3.50;3.20;;;37.40;42.50;;;;;;4989919;28;20183;-59
2021/06/03 08:31:15;;;;;;;2.87;2.67;;;38.40;41.10;;;;;;4987570;28;21002;-59
2021/06/03 08:33:41;;;;;;;3.30;2.60;;;38.40;40.00;;;;;;4992522;28;20270;-59
2021/06/03 08:36:06;;;;;;;2.37;2.17;;;38.20;40.20;;;;;;4991767;28;20568;-58
2021/06/03 08:38:32;;;;;;;2.97;2.67;;;38.40;39.20;;;;;;4991710;28;20192;-59
2021/06/03 08:41:01;;;;;;;2.83;2.70;;;37.20;40.10;;;;;;4990781;28;20188;-59
2021/06/03 08:43:29;;;;;;;3.00;2.80;;;37.10;41.40;;;;;;4990427;28;20438;-58
2021/06/03 08:45:56;;;;;;;2.47;2.27;;;36.30;41.00;;;;;;4991571;28;20589;-58
2021/06/03 08:48:23;;;;;;;2.73;2.53;;;36.70;41.30;;;;;;4990892;28;20444;-58
2021/06/03 08:50:52;;;;;;;2.70;2.50;;;36.80;41.00;;;;;;4991744;28;20461;-59
2021/06/03 08:53:19;;;;;;;3.70;2.40;;;36.90;41.20;;;;;;4992153;28;20442;-58
2021/06/03 08:58:31;;;;;;;2.60;2.40;;;37.20;40.60;;;;;;4991258;28;20453;-59
2021/06/03 09:00:59;;;;;;;3.00;2.70;;;36.60;41.20;;;;;;4989289;28;20474;-58
2021/06/03 09:03:28;;;;;;;2.53;2.33;;;37.10;41.20;;;;;;4990189;28;20535;-58
2021/06/03 09:05:54;;;;;;;3.00;2.80;;;37.30;40.50;;;;;;4991219;28;20474;-58
2021/06/03 09:08:26;;;;;;;3.30;3.10;;;37.30;40.90;;;;;;4991176;28;20449;-58
2021/06/03 09:10:55;;;;;;;3.20;2.20;;;37.60;40.40;;;;;;4991923;28;20442;-57
2021/06/03 09:13:27;;;;;;;3.17;2.50;;;37.50;38.80;;;;;;4987136;28;20541;-57
2021/06/03 09:16:10;;;;;;;2.57;2.37;;;36.80;40.50;;;;;;4990775;28;20462;-58
2021/06/03 09:18:38;;;;;;;2.73;2.53;;;37.20;39.70;;;;;;4974691;28;20967;-58
2021/06/03 09:21:13;;;;;;;2.90;2.40;;;38.30;38.40;;;;;;4990158;28;20466;-59
2021/06/03 09:23:45;;;;;;;3.17;2.97;;;39.40;37.00;;;;;;4989204;28;20933;-58
2021/06/03 09:26:16;;;;;;;3.73;3.43;;;39.70;37.10;;;;;;4989599;28;20497;-58
2021/06/03 09:28:44;;;;;;;4.63;3.20;;;40.00;36.60;;;;;;4991502;28;20450;-59
2021/06/03 09:31:19;;;;;;;3.20;3.00;;;40.00;36.50;;;;;;4984252;28;20773;-58
2021/06/03 09:33:57;;;;;;;3.60;3.40;;;40.30;36.10;;;;;;4986098;28;20214;-60
2021/06/03 09:36:30;;;;;;;2.80;2.60;;;39.80;36.70;;;;;;4983714;28;20462;-59
2021/06/03 09:39:22;;;;;;;3.13;2.93;;;39.50;35.80;;;;;;4984785;28;20481;-59
2021/06/03 09:41:58;;;;;;;3.40;3.20;;;39.80;36.50;;;;;;4978928;28;20439;-59
2021/06/03 09:44:31;;;;;;;3.30;3.10;;;39.60;36.90;;;;;;4985729;28;20454;-59
2021/06/03 09:47:14;;;;;;;3.67;3.37;;;39.70;36.40;;;;;;4986057;28;21022;-58
2021/06/03 09:49:42;;;;;;;3.70;3.40;;;39.10;36.00;;;;;;4981995;28;21057;-58
2021/06/03 09:52:18;;;;;;;2.80;2.60;;;38.80;37.40;;;;;;4984502;28;20446;-58
2021/06/03 09:54:55;;;;;;;3.93;3.17;;;39.10;36.60;;;;;;4986763;28;20951;-59
2021/06/03 09:57:27;;;;;;;3.07;2.87;;;39.90;35.40;;;;;;4990835;28;20557;-58
2021/06/03 10:00:10;;;;;;;3.50;3.27;;;40.00;35.40;;;;;;4989030;28;20462;-57
2021/06/03 10:02:38;;;;;;;3.20;3.00;;;39.20;36.10;;;;;;4986031;28;20450;-60
2021/06/03 10:05:13;;;;;;;3.40;3.20;;;38.10;37.60;;;;;;4981618;28;20520;-60
2021/06/03 10:07:39;;;;;;;3.20;2.93;;;38.60;36.70;;;;;;4981590;28;20965;-58
2021/06/03 10:10:04;;;;;;;3.20;2.90;;;38.20;36.00;;;;;;4981530;28;20964;-58
2021/06/03 10:12:30;;;;;;;2.80;2.60;;;37.40;37.20;;;;;;4987904;28;20459;-58
2021/06/03 10:15:00;;;;;;;3.27;2.40;;;36.50;38.70;;;;;;4985042;28;20196;-57
2021/06/03 10:17:32;;;;;;;4.17;2.27;;;36.70;38.00;;;;;;4985303;28;20211;-58
2021/06/03 10:20:03;;;;;;;3.73;2.10;;;36.70;37.90;;;;;;4980534;28;20438;-58
2021/06/03 10:22:31;;;;;;;2.77;2.43;;;37.50;36.30;;;;;;4989397;28;20446;-58
2021/06/03 10:25:17;;;;;;;3.97;2.40;;;37.80;36.10;;;;;;4990652;28;20489;-59
2021/06/03 10:27:49;;;;;;;2.30;2.13;;;38.20;35.70;;;;;;4987806;28;20533;-58
2021/06/03 10:30:21;;;;;;;2.40;2.20;;;38.10;35.70;;;;;;4987349;28;20440;-58
2021/06/03 10:32:49;;;;;;;2.60;2.40;;;37.60;36.00;;;;;;5004252;28;20442;-58
2021/06/03 10:35:21;;;;;;;2.47;2.37;;;37.60;35.20;;;;;;4986676;28;20469;-58
2021/06/03 10:37:48;;;;;;;2.30;2.10;;;38.30;34.90;;;;;;4990321;28;20466;-58
2021/06/03 10:40:20;;;;;;;2.53;2.30;;;37.70;35.00;;;;;;4989855;28;21101;-58
2021/06/03 10:42:49;;;;;;;2.20;1.90;;;36.50;36.10;;;;;;4987166;28;20443;-57
2021/06/03 10:45:17;;;;;;;2.20;2.00;;;36.30;37.20;;;;;;4989207;28;20832;-59
2021/06/03 10:47:43;;;;;;;2.40;2.13;;;36.50;37.40;;;;;;4988142;28;20537;-57
2021/06/03 10:50:13;;;;;;;2.37;2.03;;;36.40;37.70;;;;;;4986692;28;20919;-58
2021/06/03 10:52:40;;;;;;;2.27;2.17;;;36.20;38.10;;;;;;4983924;28;20191;-58
2021/06/03 10:55:08;;;;;;;2.77;2.20;;;36.00;38.10;;;;;;4989989;28;20458;-58
2021/06/03 10:58:10;;;;;;;6.00;1.97;;;36.50;36.20;;;;;;4982928;28;20496;-58
2021/06/03 11:00:58;;;;;;;2.23;2.13;;;37.20;35.20;;;;;;4914906;29;20982;-57
2021/06/03 11:03:38;;;;;;;2.63;2.00;;;37.00;35.40;;;;;;4984294;28;20446;-58
2021/06/03 11:06:06;;;;;;;3.00;2.20;;;36.70;36.10;;;;;;4988172;28;20994;-58
2021/06/03 11:08:48;;;;;;;2.70;2.50;;;36.20;36.70;;;;;;4991335;28;21001;-57
2021/06/03 11:11:14;;;;;;;2.20;2.10;;;36.50;36.80;;;;;;4986047;28;20490;-58
2021/06/03 11:13:45;;;;;;;2.10;2.00;;;36.90;35.90;;;;;;4991204;28;20967;-58
2021/06/03 11:16:16;;;;;;;2.63;2.43;;;37.40;36.00;;;;;;4997483;28;20226;-58
2021/06/03 11:18:45;;;;;;;3.60;3.30;;;37.50;35.60;;;;;;4987890;28;20465;-58
2021/06/03 11:21:33;;;;;;;2.83;2.20;;;37.60;35.50;;;;;;4989190;28;20485;-58
2021/06/03 11:24:05;;;;;;;2.90;2.57;;;36.50;36.50;;;;;;4989123;28;20442;-58
2021/06/03 11:26:37;;;;;;;3.37;2.70;;;35.80;37.80;;;;;;4989102;28;20489;-58
2021/06/03 11:29:18;;;;;;;2.90;2.70;;;35.50;38.90;;;;;;4989391;28;20439;-58
2021/06/03 11:32:05;;;;;;;3.00;2.80;;;34.70;42.20;;;;;;4989457;28;20438;-58
2021/06/03 11:34:40;;;;;;;5.27;2.80;;;33.60;44.90;;;;;;4985307;28;20442;-57
2021/06/03 11:37:11;;;;;;;2.67;2.47;;;32.80;46.70;;;;;;4988306;28;20489;-58
2021/06/03 11:39:41;;;;;;;3.07;2.70;;;32.20;48.00;;;;;;4988374;28;20462;-57
2021/06/03 11:42:40;;;;;;;3.07;2.50;;;32.40;47.80;;;;;;4987438;28;20438;-58
2021/06/03 11:45:19;;;;;;;3.20;2.60;;;32.80;47.40;;;;;;4984017;28;20450;-56
2021/06/03 11:47:44;;;;;;;2.50;2.30;;;32.20;48.60;;;;;;4989079;28;20438;-58
2021/06/03 11:50:16;;;;;;;3.20;2.50;;;32.00;48.50;;;;;;4989490;28;20974;-57
2021/06/03 11:53:00;;;;;;;3.30;3.10;;;31.60;49.30;;;;;;4990330;28;20226;-57
2021/06/03 11:55:49;;;;;;;3.37;2.80;;;31.30;49.50;;;;;;4986779;28;20465;-58
2021/06/03 11:58:19;;;;;;;2.67;2.47;;;31.00;50.40;;;;;;4986669;28;21039;-57
2021/06/03 12:00:53;;;;;;;2.80;2.60;;;30.60;51.00;;;;;;5001682;28;20486;-57
2021/06/03 12:03:29;;;;;;;2.93;2.27;;;30.10;52.10;;;;;;4999633;28;20434;-57
2021/06/03 12:06:07;;;;;;;3.27;3.07;;;29.60;52.90;;;;;;4986137;28;20915;-57
2021/06/03 12:08:52;;;;;;;3.00;2.80;;;29.40;53.80;;;;;;4989266;28;20450;-57
2021/06/03 12:11:36;;;;;;;2.97;2.67;;;29.10;54.80;;;;;;4988375;28;20442;-58
2021/06/03 12:14:07;;;;;;;2.73;2.53;;;28.70;55.00;;;;;;4998216;28;20440;-57
2021/06/03 12:16:37;;;;;;;6.23;3.00;;;28.40;56.20;;;;;;4984249;28;20895;-57
2021/06/03 12:19:08;;;;;;;3.33;2.90;;;28.00;57.20;;;;;;4988484;28;20489;-58
2021/06/03 12:21:33;;;;;;;3.00;2.80;;;27.80;57.80;;;;;;4987455;28;20445;-57
2021/06/03 12:23:59;;;;;;;3.40;2.60;;;27.60;58.70;;;;;;4988567;28;20459;-58
2021/06/03 12:26:25;;;;;;;3.17;2.80;;;27.50;59.00;;;;;;4987108;28;20274;-58
2021/06/03 12:28:51;;;;;;;4.50;3.00;;;27.30;59.10;;;;;;4988126;28;20195;-57
2021/06/03 12:31:26;;;;;;;3.93;3.63;;;26.60;61.40;;;;;;4987398;28;20206;-57
2021/06/03 12:33:52;;;;;;;3.37;2.93;;;26.60;62.80;;;;;;4988428;28;20432;-57
2021/06/03 12:36:18;;;;;;;5.27;3.00;;;26.60;63.00;;;;;;4985224;28;20520;-57
2021/06/03 12:38:48;;;;;;;6.43;3.70;;;26.30;67.40;;;;;;4986524;28;20449;-56
2021/06/03 12:41:31;;;;;;;7.50;5.33;;;26.30;74.30;;;;;;4985021;28;20447;-58
2021/06/03 12:44:10;;;;;;;7.13;4.50;;;24.70;97.90;;;;;;4986308;28;20446;-60
2021/06/03 12:46:46;;;;;;;5.28;3.65;;;22.60;99.90;;;;;;4986302;28;20458;-63
2021/06/03 12:49:17;;;;;;;4.68;4.15;;;21.70;99.90;;;;;;4997280;28;20191;-61
2021/06/03 12:52:12;;;;;;;3.85;3.55;;;21.20;99.90;;;;;;4980049;28;20195;-60
2021/06/03 12:54:46;;;;;;;5.05;3.75;;;20.90;99.90;;;;;;4962215;28;20192;-60
2021/06/03 12:57:19;;;;;;;4.35;3.53;;;20.60;99.90;;;;;;4985766;28;20211;-60
2021/06/03 12:59:50;;;;;;;3.78;3.38;;;20.50;99.90;;;;;;4980111;28;20219;-60
2021/06/03 13:02:19;;;;;;;4.50;3.90;;;20.50;99.90;;;;;;4985276;28;20695;-59